Flight Track Log - Related Links

Times and Time Zones

All times are in EDT time to prevent confusion due to time zone crossing. See the JIA2342 flight status page for this flight to view local times or setup timezone preferences in your user account.

Time Position Orientation Groundspeed Altitude Reporting Facility
EDT Latitude Longitude Course Direction KTS MPH feet Rate Location/Type
Sun 07:53:37 PM 38.8333 -77.0333 67° East 167 192 1,100  Level Potomac TRACON
Sun 07:54:38 PM 38.7833 -77.0333 180° South 224 258 3,200 2,301 Climbing Potomac TRACON
Sun 07:56:00 PM 38.9599 -76.6038 67° East  Level FlightAware Approximate
Sun 07:56:50 PM 38.6997 -76.9164 132° Southeast 230 265 8,500  Level Washington Center
Sun 07:57:00 PM 38.9978 -76.4518 74° East  Level FlightAware Approximate
Sun 07:57:51 PM 38.7733 -76.8592 31° Northeast 179 206 10,600  Level Washington Center
Sun 07:58:00 PM 39.0232 -76.2971 67° East  Level FlightAware Approximate
Sun 07:58:52 PM 38.8742 -76.7914 28° Northeast 246 283 12,300  Level Washington Center
Sun 07:59:50 PM 38.9211 -76.6750 63° Northeast 320 368 13,900 1,664 Climbing Washington Center
Sun 08:00:51 PM 38.9636 -76.5500 66° East 338 389 15,600 1,574 Climbing Washington Center
Sun 08:01:52 PM 39.0083 -76.4250 65° Northeast 365 420 17,100 1,190 Climbing Washington Center
Sun 08:02:52 PM 39.0281 -76.2889 79° East 378 435 18,000 950 Climbing Washington Center
Sun 08:03:52 PM 39.0392 -76.1581 84° East 395 455 19,000 1,000 Climbing Washington Center
Sun 08:04:52 PM 39.0481 -76.0111 86° East 400 460 20,000 1,017 Climbing Washington Center
Sun 08:05:50 PM 39.0528 -75.8669 88° East 406 467 21,000 1,017 Climbing Washington Center
Sun 08:06:50 PM 39.0592 -75.7200 87° East 406 467 22,000 992 Climbing Washington Center
Sun 08:07:51 PM 39.0656 -75.5703 87° East 406 467 23,000 496 Climbing Washington Center
Sun 08:08:51 PM 39.0694 -75.4153 88° East 411 473 23,000  Level Washington Center
Sun 08:09:52 PM 39.0775 -75.2547 86° East 430 495 23,000 50 Level Washington Center
Sun 08:10:50 PM 39.0853 -75.0942 86° East 440 506 23,100 756 Climbing Washington Center
Sun 08:11:51 PM 39.0906 -74.9178 88° East 450 518 24,500 1,180 Climbing Washington Center
Sun 08:12:52 PM 39.1189 -74.7703 76° East 423 487 25,500 1,008 Climbing Washington Center
Sun 08:13:50 PM 39.1972 -74.6597 48° Northeast 398 458 26,500 1,008 Climbing Washington Center
Sun 08:14:51 PM 39.2797 -74.5486 46° Northeast 410 472 27,500 992 Climbing Washington Center
Sun 08:15:51 PM 39.3600 -74.4400 46° Northeast 410 472 28,500 744 Climbing Washington Center
Sun 08:16:52 PM 39.4361 -74.3339 47° Northeast 410 472 29,000 248 Climbing Washington Center
Sun 08:17:52 PM 39.5203 -74.2194 46° Northeast 415 478 29,000  Level Washington Center
Sun 08:18:50 PM 39.6042 -74.1022 47° Northeast 425 489 29,000  Level Washington Center
Sun 08:19:50 PM 39.6903 -73.9844 46° Northeast 435 501 29,000  Level Washington Center
Sun 08:21:30 PM 39.8250 -73.7908 48° Northeast 446 513 29,000  Level Boston Center
Sun 08:22:30 PM 39.9139 -73.6681 47° Northeast 456 525 29,000  Level Boston Center
Sun 08:23:30 PM 40.0047 -73.5506 45° Northeast 456 525 29,000  Level Boston Center
Sun 08:24:30 PM 40.0933 -73.4219 48° Northeast 456 525 29,000  Level Boston Center
Sun 08:25:30 PM 40.1778 -73.2956 49° Northeast 461 531 29,000  Level Boston Center
Sun 08:26:30 PM 40.2683 -73.1633 48° Northeast 468 539 29,000  Level Boston Center
Sun 08:27:30 PM 40.3669 -73.0583 39° Northeast 462 532 29,000  Level Boston Center
Sun 08:28:30 PM 40.4881 -72.9939 22° Northeast 455 524 29,000 -550 Level Boston Center
Sun 08:29:30 PM 40.6089 -73.0222 350° North 427 491 27,900 -1,400 Descending Boston Center
Sun 08:30:30 PM 40.7522 -73.0592 349° North 442 509 26,200 -1,600 Descending Boston Center
Sun 08:31:30 PM 40.8772 -73.0797 353° North 456 525 24,700 -1,500 Descending Boston Center
Sun 08:32:30 PM 41.0000 -73.1000 353° North 456 525 23,200 -1,500 Descending Boston Center
Sun 08:33:30 PM 41.1186 -73.1317 349° North 444 511 21,700 -1,500 Descending Boston Center
Sun 08:34:30 PM 41.2331 -73.1797 342° North 432 497 20,200 -850 Descending Boston Center
Sun 08:35:30 PM 41.3514 -73.2225 345° North 427 491 20,000 -400 Descending Boston Center
Sun 08:36:30 PM 41.4617 -73.2683 343° North 427 491 19,400 -1,000 Descending Boston Center
Sun 08:37:30 PM 41.5758 -73.3169 342° North 427 491 18,000 -700 Descending Boston Center
Sun 08:38:30 PM 41.6881 -73.3603 344° North 414 476 18,000 -250 Level Boston Center
Sun 08:39:30 PM 41.7961 -73.4064 342° North 414 476 17,500 -1,200 Descending Boston Center
Sun 08:40:30 PM 41.9042 -73.4497 343° North 409 471 15,600 -2,000 Descending Boston Center
Sun 08:41:30 PM 42.0078 -73.4933 343° North 399 459 13,500 -2,020 Descending Boston Center
Sun 08:42:11 PM 42.0764 -73.5225 342° North 383 441 12,200 -1,579 Descending Boston Center
Sun 08:43:05 PM 42.1678 -73.5633 342° North 374 430 11,000 -857 Descending Boston Center
Sun 08:43:42 PM 42.2258 -73.5867 343° North 376 433 10,900 -885 Descending Boston Center
Sun 08:45:07 PM 42.3314 -73.6419 339° North 268 308 9,200 -1,655 Descending Boston Center
Sun 08:46:07 PM 42.4042 -73.6744 342° North 265 305 6,900 -2,231 Descending Boston Center
Sun 08:47:08 PM 42.4767 -73.7069 342° North 270 311 4,700 -2,156 Descending Boston Center
Sun 08:48:15 PM 42.5575 -73.7481 339° North 272 313 2,300 -1,409 Descending Boston Center
Sun 08:49:03 PM 42.6114 -73.7772 338° Northwest 271 312 2,000 -330 Descending Boston Center
Sun 08:50:04 PM 42.6694 -73.8039 341° North 181 208 1,700 -541 Descending Boston Center
Sun 08:51:05 PM 42.7111 -73.8078 356° North 136 157 900 -787 Descending Boston Center
Sun 08:53:00 PM 42.7333 -73.8000 340° North  Level FlightAware Approximate

Login

Don't have an account? Register now (free) for customized features, flight alerts, and more!